createdAt,value
2022-10-21T00:02:28.690Z,99827.63
2022-10-21T00:04:56.382Z,99839.00
2022-10-21T00:07:24.089Z,99835.88
2022-10-21T00:09:51.767Z,99839.00
2022-10-21T00:12:19.485Z,99831.63
2022-10-21T00:14:47.228Z,99828.94
2022-10-21T00:17:14.919Z,99836.16
2022-10-21T00:19:44.019Z,99845.25
2022-10-21T00:22:11.921Z,99848.94
2022-10-21T00:24:39.586Z,99852.94
2022-10-21T00:27:07.918Z,99848.38
2022-10-21T00:29:35.830Z,99844.84
2022-10-21T00:32:03.584Z,99844.41
2022-10-21T00:34:32.360Z,99845.81
2022-10-21T00:37:01.457Z,99842.72
2022-10-21T00:39:29.220Z,99848.09
2022-10-21T00:41:56.970Z,99840.84
2022-10-21T00:44:27.545Z,99852.09
2022-10-21T00:46:59.337Z,99848.94
2022-10-21T00:49:35.643Z,99857.31
2022-10-21T00:52:09.001Z,99853.78
2022-10-21T00:54:38.871Z,99856.91
2022-10-21T00:57:07.537Z,99852.94
2022-10-21T00:59:43.257Z,99855.75
2022-10-21T01:02:11.213Z,99865.41
2022-10-21T01:04:39.104Z,99864.69
2022-10-21T01:07:08.305Z,99861.47
2022-10-21T01:09:36.150Z,99866.56
2022-10-21T01:12:05.149Z,99871.09
2022-10-21T01:14:44.509Z,99868.25
2022-10-21T01:17:40.392Z,99861.28
2022-10-21T01:20:47.066Z,99863.84
2022-10-21T01:23:53.987Z,99861.16
2022-10-21T01:26:53.961Z,99858.47
2022-10-21T01:29:52.882Z,99855.75
2022-10-21T01:32:29.355Z,99852.81
2022-10-21T01:35:02.961Z,99842.41
2022-10-21T01:37:41.608Z,99837.00
2022-10-21T01:40:16.106Z,99826.34
2022-10-21T01:42:51.855Z,99826.34
2022-10-21T01:45:25.610Z,99822.41
2022-10-21T01:47:57.119Z,99836.88
2022-10-21T01:50:27.485Z,99836.34
2022-10-21T01:53:07.061Z,99833.31
2022-10-21T01:55:36.444Z,99831.78
2022-10-21T01:58:06.516Z,99823.13
2022-10-21T02:00:36.177Z,99821.00
2022-10-21T02:03:08.378Z,99821.69
2022-10-21T02:05:37.142Z,99819.84
2022-10-21T02:08:05.843Z,99821.13
2022-10-21T02:10:37.043Z,99816.75
2022-10-21T02:13:07.431Z,99816.31
2022-10-21T02:15:36.130Z,99815.75
2022-10-21T02:18:08.006Z,99811.75
2022-10-21T02:20:40.033Z,99812.34
2022-10-21T02:23:09.807Z,99809.31
2022-10-21T02:25:41.752Z,99799.25
2022-10-21T02:28:10.028Z,99797.84
2022-10-21T02:30:46.037Z,99805.66
2022-10-21T02:33:21.374Z,99794.16
2022-10-21T02:35:59.502Z,99797.00
2022-10-21T02:38:30.702Z,99794.47
2022-10-21T02:41:03.240Z,99791.91
2022-10-21T02:43:34.555Z,99778.16
2022-10-21T02:46:08.543Z,99775.84
2022-10-21T02:48:40.005Z,99777.28
2022-10-21T02:51:09.214Z,99771.03
2022-10-21T02:53:37.446Z,99769.50
2022-10-21T02:56:05.841Z,99773.03
2022-10-21T02:58:33.860Z,99766.78
2022-10-21T03:01:02.262Z,99772.44
2022-10-21T03:03:30.552Z,99762.69
2022-10-21T03:05:59.805Z,99762.09
2022-10-21T03:08:27.526Z,99758.53
2022-10-21T03:10:55.596Z,99763.09
2022-10-21T03:13:23.776Z,99759.69
2022-10-21T03:15:52.118Z,99757.56
2022-10-21T03:18:20.008Z,99756.13
2022-10-21T03:20:50.635Z,99769.19
2022-10-21T03:23:20.570Z,99774.13
2022-10-21T03:25:48.813Z,99769.63
2022-10-21T03:28:16.500Z,99772.31
2022-10-21T03:30:44.296Z,99772.31
2022-10-21T03:33:12.105Z,99768.22
2022-10-21T03:35:39.853Z,99772.31
2022-10-21T03:38:07.529Z,99770.47
2022-10-21T03:40:36.604Z,99777.13
2022-10-21T03:43:04.517Z,99759.69
2022-10-21T03:45:32.265Z,99773.75
2022-10-21T03:47:59.924Z,99768.22
2022-10-21T03:50:27.784Z,99766.50
2022-10-21T03:52:56.293Z,99761.09
2022-10-21T03:55:25.226Z,99772.59
2022-10-21T03:57:54.739Z,99778.81
2022-10-21T04:00:23.216Z,99773.75
2022-10-21T04:02:51.474Z,99782.25
2022-10-21T04:05:19.407Z,99789.91
2022-10-21T04:07:50.698Z,99785.09
2022-10-21T04:10:21.206Z,99795.56
2022-10-21T04:12:48.896Z,99799.69
2022-10-21T04:15:18.097Z,99793.75
2022-10-21T04:17:47.230Z,99796.16
2022-10-21T04:20:15.296Z,99790.06
2022-10-21T04:22:42.989Z,99797.28
2022-10-21T04:25:10.926Z,99790.63
2022-10-21T04:27:38.689Z,99789.19
2022-10-21T04:30:07.710Z,99794.44
2022-10-21T04:32:37.181Z,99801.00
2022-10-21T04:35:05.822Z,99794.75
2022-10-21T04:37:33.666Z,99793.47
2022-10-21T04:40:01.332Z,99804.09
2022-10-21T04:42:29.105Z,99804.66
2022-10-21T04:44:56.906Z,99801.81
2022-10-21T04:47:24.605Z,99797.41
2022-10-21T04:49:53.710Z,99798.06
2022-10-21T04:52:21.405Z,99805.78
2022-10-21T04:54:49.140Z,99806.75
2022-10-21T04:57:16.841Z,99816.69
2022-10-21T04:59:44.628Z,99811.53
2022-10-21T05:02:13.634Z,99810.28
2022-10-21T05:04:41.413Z,99814.75
2022-10-21T05:07:11.908Z,99815.84
2022-10-21T05:09:39.585Z,99816.31
2022-10-21T05:12:07.269Z,99814.44
2022-10-21T05:14:35.035Z,99806.25
2022-10-21T05:17:02.801Z,99794.63
2022-10-21T05:19:31.504Z,99796.09
2022-10-21T05:21:59.739Z,99804.56
2022-10-21T05:24:29.150Z,99810.66
2022-10-21T05:26:56.964Z,99808.56
2022-10-21T05:29:24.701Z,99819.34
2022-10-21T05:31:52.393Z,99827.50
2022-10-21T05:34:20.362Z,99837.22
2022-10-21T05:36:48.978Z,99821.53
2022-10-21T05:39:17.026Z,99822.03
2022-10-21T05:41:47.991Z,99821.91
2022-10-21T05:44:16.395Z,99837.88
2022-10-21T05:46:44.119Z,99837.16
2022-10-21T05:49:12.826Z,99829.16
2022-10-21T05:51:40.584Z,99831.78
2022-10-21T05:54:08.271Z,99831.31
2022-10-21T05:56:36.022Z,99829.81
2022-10-21T05:59:07.862Z,99833.84
2022-10-21T06:01:37.889Z,99832.41
2022-10-21T06:04:06.224Z,99836.09
2022-10-21T06:06:33.980Z,99834.13
2022-10-21T06:09:02.005Z,99825.91
2022-10-21T06:11:29.798Z,99840.66
2022-10-21T06:13:57.577Z,99838.25
2022-10-21T06:16:26.673Z,99845.13
2022-10-21T06:18:54.413Z,99846.31
2022-10-21T06:21:22.105Z,99844.78
2022-10-21T06:23:53.349Z,99854.25
2022-10-21T06:26:21.069Z,99863.78
2022-10-21T06:28:48.753Z,99864.44
2022-10-21T06:31:18.682Z,99871.16
2022-10-21T06:33:47.745Z,99870.19
2022-10-21T06:36:15.496Z,99878.69
2022-10-21T06:38:43.256Z,99886.00
2022-10-21T06:41:13.881Z,99886.34
2022-10-21T06:43:42.336Z,99889.81
2022-10-21T06:46:11.961Z,99899.34
2022-10-21T06:48:39.726Z,99893.69
2022-10-21T06:51:14.882Z,99900.53
2022-10-21T06:53:43.325Z,99903.63
2022-10-21T06:56:13.145Z,99894.13
2022-10-21T06:58:43.331Z,99891.09
2022-10-21T07:01:27.281Z,99883.56
2022-10-21T07:04:01.235Z,99889.41
2022-10-21T07:06:30.572Z,99887.84
2022-10-21T07:08:59.086Z,99894.72
2022-10-21T07:11:27.632Z,99885.88
2022-10-21T07:13:56.044Z,99896.56
2022-10-21T07:16:26.251Z,99909.50
2022-10-21T07:18:55.087Z,99912.16
2022-10-21T07:21:24.489Z,99911.84
2022-10-21T07:23:56.660Z,99911.34
2022-10-21T07:26:29.167Z,99920.19
2022-10-21T07:28:58.731Z,99926.56
2022-10-21T07:31:26.661Z,99923.03
2022-10-21T07:33:55.110Z,99933.97
2022-10-21T07:36:25.716Z,99937.09
2022-10-21T07:38:56.585Z,99937.81
2022-10-21T07:41:27.076Z,99941.66
2022-10-21T07:43:55.473Z,99949.16
2022-10-21T07:46:23.963Z,99946.38
2022-10-21T07:48:52.472Z,99950.56
2022-10-21T07:51:25.717Z,99958.13
2022-10-21T07:53:59.500Z,99958.84
2022-10-21T07:56:29.508Z,99963.97
2022-10-21T07:58:58.284Z,99971.50
2022-10-21T08:01:27.121Z,99973.09
2022-10-21T08:03:56.351Z,99978.31
2022-10-21T08:06:25.358Z,99977.94
2022-10-21T08:08:55.978Z,99974.94
2022-10-21T08:11:26.530Z,99976.78
2022-10-21T08:13:56.368Z,99975.06
2022-10-21T08:16:24.677Z,99982.19
2022-10-21T08:18:53.323Z,99981.34
2022-10-21T08:21:22.245Z,99992.41
2022-10-21T08:23:50.038Z,99984.69
2022-10-21T08:26:17.928Z,99984.44
2022-10-21T08:28:47.130Z,99987.59
2022-10-21T08:31:17.779Z,99994.44
2022-10-21T08:33:46.029Z,99991.56
2022-10-21T08:36:15.462Z,99995.03
2022-10-21T08:38:43.173Z,99991.13
2022-10-21T08:41:32.267Z,100000.00
2022-10-21T08:44:06.037Z,99994.91
2022-10-21T08:46:37.257Z,99999.91
2022-10-21T08:49:11.033Z,100006.69
2022-10-21T08:51:42.951Z,100007.97
2022-10-21T08:54:16.057Z,100015.38
2022-10-21T08:56:43.777Z,100003.34
2022-10-21T08:59:21.796Z,100009.13
2022-10-21T09:01:55.774Z,99999.88
2022-10-21T09:04:36.084Z,100005.44
2022-10-21T09:07:14.843Z,99998.31
2022-10-21T09:09:50.141Z,100004.16
2022-10-21T09:12:27.015Z,99999.22
2022-10-21T09:15:20.538Z,100004.59
2022-10-21T09:18:03.654Z,100006.44
2022-10-21T09:20:42.127Z,100011.13
2022-10-21T09:23:29.723Z,100004.44
2022-10-21T09:26:01.967Z,100009.19
2022-10-21T09:28:31.647Z,100008.97
2022-10-21T09:31:03.864Z,100016.16
2022-10-21T09:33:34.817Z,100008.50
2022-10-21T09:36:07.115Z,100011.06
2022-10-21T09:38:43.438Z,99988.47
2022-10-21T09:41:17.966Z,100016.16
2022-10-21T09:43:45.983Z,100002.31
2022-10-21T09:46:16.541Z,100005.63
2022-10-21T09:49:16.406Z,100009.00
2022-10-21T09:51:40.192Z,100010.16
2022-10-21T09:54:13.104Z,100015.69
2022-10-21T09:56:46.165Z,100008.16
2022-10-21T09:59:16.360Z,100008.75
2022-10-21T10:01:47.275Z,99997.13
2022-10-21T10:04:22.606Z,99998.53
2022-10-21T10:06:50.543Z,100002.38
2022-10-21T10:09:27.329Z,100005.16
2022-10-21T10:11:57.345Z,99993.47
2022-10-21T10:14:32.156Z,99999.66
2022-10-21T10:17:28.843Z,99982.91
2022-10-21T10:20:13.125Z,99987.97
2022-10-21T10:22:43.082Z,99990.47
2022-10-21T10:25:21.480Z,99985.06
2022-10-21T10:27:51.090Z,99981.41
2022-10-21T10:30:19.335Z,99982.44
2022-10-21T10:32:50.369Z,99985.25
2022-10-21T10:35:31.472Z,99994.25
2022-10-21T10:38:02.313Z,99984.34
2022-10-21T10:40:34.090Z,99982.88
2022-10-21T10:43:07.107Z,99978.13
2022-10-21T10:45:36.051Z,99980.72
2022-10-21T10:48:07.152Z,99996.88
2022-10-21T10:50:42.942Z,99983.75
2022-10-21T10:53:31.396Z,99991.25
2022-10-21T10:56:07.184Z,99996.97
2022-10-21T10:58:37.665Z,99982.75
2022-10-21T11:01:13.830Z,99997.59
2022-10-21T11:03:51.986Z,99987.81
2022-10-21T11:06:28.668Z,99975.28
2022-10-21T11:08:59.616Z,100002.31
2022-10-21T11:11:31.066Z,99997.13
2022-10-21T11:17:01.976Z,99973.00
2022-10-21T11:19:43.334Z,99995.28
2022-10-21T11:22:21.941Z,99996.41
2022-10-21T11:25:04.630Z,99982.59
2022-10-21T11:27:52.293Z,99992.28
2022-10-21T11:30:22.332Z,99979.94
2022-10-21T11:33:04.220Z,99977.66
2022-10-21T11:35:48.201Z,99982.91
2022-10-21T11:38:30.888Z,99981.75
2022-10-21T11:41:07.730Z,99987.09
2022-10-21T11:43:45.610Z,99988.81
2022-10-21T11:46:21.937Z,99986.81
2022-10-21T11:49:26.837Z,99979.63
2022-10-21T11:52:04.698Z,99972.56
2022-10-21T11:55:08.273Z,99976.97
2022-10-21T11:57:47.094Z,99974.88
2022-10-21T12:00:20.009Z,99992.38
2022-10-21T12:03:11.699Z,99960.34
2022-10-21T12:05:48.126Z,99972.38
2022-10-21T12:08:23.099Z,99966.00
2022-10-21T12:10:55.636Z,99957.03
2022-10-21T12:13:27.508Z,99975.34
2022-10-21T12:15:59.253Z,99966.44
2022-10-21T12:18:29.409Z,99965.38
2022-10-21T12:20:58.326Z,99967.75
2022-10-21T12:23:30.926Z,99945.09
2022-10-21T12:26:13.962Z,99956.94
2022-10-21T12:28:45.761Z,99947.44
2022-10-21T12:31:36.447Z,99952.28
2022-10-21T12:34:05.283Z,99954.75
2022-10-21T12:36:42.766Z,99962.94
2022-10-21T12:39:39.182Z,99945.56
2022-10-21T12:42:13.858Z,99953.25
2022-10-21T12:44:46.619Z,99943.41
2022-10-21T12:47:27.014Z,99935.44
2022-10-21T12:50:20.447Z,99955.72
2022-10-21T12:53:06.108Z,99940.06
2022-10-21T12:55:40.077Z,99951.47
2022-10-21T12:58:23.424Z,99934.59
2022-10-21T13:00:55.717Z,99928.94
2022-10-21T13:03:53.359Z,99946.50
2022-10-21T13:06:52.743Z,99948.06
2022-10-21T13:09:39.273Z,99932.59
2022-10-21T13:12:30.262Z,99919.94
2022-10-21T13:15:01.728Z,99933.56
2022-10-21T13:17:47.187Z,99937.25
2022-10-21T13:20:47.547Z,99933.19
2022-10-21T13:23:39.615Z,99939.53
2022-10-21T13:26:15.566Z,99950.56
2022-10-21T13:28:54.939Z,99928.84
2022-10-21T13:31:25.068Z,99936.53
2022-10-21T13:33:55.267Z,99944.28
2022-10-21T13:39:23.370Z,99932.38
2022-10-21T13:42:00.849Z,99926.81
2022-10-21T13:44:34.278Z,99927.75
2022-10-21T13:47:26.758Z,99940.19
2022-10-21T13:49:56.223Z,99945.94
2022-10-21T13:52:28.535Z,99932.56
2022-10-21T13:55:00.936Z,99932.22
2022-10-21T13:57:33.594Z,99929.31
2022-10-21T14:00:03.285Z,99940.34
2022-10-21T14:02:32.442Z,99948.81
2022-10-21T14:05:00.189Z,99933.34
2022-10-21T14:07:28.842Z,99928.31
2022-10-21T14:09:59.322Z,99935.53
2022-10-21T14:12:30.251Z,99928.22
2022-10-21T14:15:02.936Z,99938.19
2022-10-21T14:17:32.869Z,99939.06
2022-10-21T14:20:07.858Z,99939.78
2022-10-21T14:22:35.980Z,99951.56
2022-10-21T14:25:04.477Z,99949.22
2022-10-21T14:27:34.603Z,99945.72
2022-10-21T14:30:04.678Z,99946.44
2022-10-21T14:32:34.705Z,99945.03
2022-10-21T14:35:07.139Z,99929.53
2022-10-21T14:37:37.222Z,99939.09
2022-10-21T14:40:12.992Z,99938.13
2022-10-21T14:42:42.288Z,99945.84
2022-10-21T14:45:17.382Z,99935.22
2022-10-21T14:47:52.543Z,99950.09
2022-10-21T14:50:22.963Z,99950.03
2022-10-21T14:52:53.285Z,99944.00
2022-10-21T14:55:29.904Z,99950.09
2022-10-21T14:58:04.760Z,99958.94
2022-10-21T15:00:36.999Z,99943.34
2022-10-21T15:03:06.192Z,99945.34
2022-10-21T15:05:41.403Z,99947.84
2022-10-21T15:08:32.042Z,99951.47
2022-10-21T15:11:23.288Z,99951.09
2022-10-21T15:14:05.959Z,99951.63
2022-10-21T15:19:10.534Z,99942.91
2022-10-21T15:21:46.278Z,99947.00
2022-10-21T15:24:19.383Z,99951.03
2022-10-21T15:26:48.253Z,99946.28
2022-10-21T15:29:29.245Z,99941.25
2022-10-21T15:31:58.679Z,99941.75
2022-10-21T15:34:28.366Z,99947.63
2022-10-21T15:36:56.413Z,99957.69
2022-10-21T15:39:24.190Z,99940.03
2022-10-21T15:41:54.979Z,99945.59
2022-10-21T15:44:26.778Z,99944.25
2022-10-21T15:47:00.393Z,99956.81
2022-10-21T15:49:33.991Z,99950.72
2022-10-21T15:52:02.540Z,99942.75
2022-10-21T15:54:30.386Z,99949.94
2022-10-21T15:56:59.976Z,99950.84
2022-10-21T15:59:28.850Z,99949.75
2022-10-21T16:01:57.752Z,99949.31
2022-10-21T16:04:25.895Z,99956.03
2022-10-21T16:06:56.001Z,99945.13
2022-10-21T16:09:26.484Z,99938.09
2022-10-21T16:12:00.747Z,99949.88
2022-10-21T16:14:30.806Z,99945.50
2022-10-21T16:17:00.254Z,99945.91
2022-10-21T16:19:28.198Z,99943.56
2022-10-21T16:21:57.724Z,99952.16
2022-10-21T16:24:25.669Z,99938.97
2022-10-21T16:26:53.464Z,99941.81
2022-10-21T16:29:24.183Z,99951.88
2022-10-21T16:31:52.276Z,99950.34
2022-10-21T16:34:20.875Z,99951.22
2022-10-21T16:36:48.946Z,99954.38
2022-10-21T16:39:20.635Z,99956.69
2022-10-21T16:41:48.335Z,99953.28
2022-10-21T16:44:16.077Z,99944.84
2022-10-21T16:46:50.478Z,99942.84
2022-10-21T16:49:21.869Z,99951.19
2022-10-21T16:51:50.024Z,99959.81
2022-10-21T16:54:20.183Z,99954.81
2022-10-21T16:56:47.867Z,99948.25
2022-10-21T16:59:15.785Z,99947.25
2022-10-21T17:01:43.757Z,99950.84
2022-10-21T17:04:14.319Z,99951.38
2022-10-21T17:06:42.346Z,99960.22
2022-10-21T17:09:10.204Z,99959.47
2022-10-21T17:11:42.275Z,99960.69
2022-10-21T17:14:15.642Z,99960.56
2022-10-21T17:16:44.277Z,99949.94
2022-10-21T17:19:12.609Z,99959.16
2022-10-21T17:21:40.334Z,99959.91
2022-10-21T17:24:08.268Z,99970.19
2022-10-21T17:26:36.665Z,99971.50
2022-10-21T17:29:05.727Z,99972.97
2022-10-21T17:31:33.584Z,99971.06
2022-10-21T17:34:06.349Z,99982.69
2022-10-21T17:36:34.362Z,99983.25
2022-10-21T17:39:02.620Z,99982.13
2022-10-21T17:41:30.518Z,99983.06
2022-10-21T17:43:58.219Z,99986.81
2022-10-21T17:46:27.319Z,99984.06
2022-10-21T17:48:58.219Z,99993.28
2022-10-21T17:51:26.806Z,99989.22
2022-10-21T17:53:55.410Z,99984.16
2022-10-21T17:56:23.844Z,100005.00
2022-10-21T17:58:52.809Z,99996.38
2022-10-21T18:01:22.059Z,100004.16
2022-10-21T18:03:51.149Z,100010.41
2022-10-21T18:06:19.531Z,100010.75
2022-10-21T18:08:48.005Z,100013.31
2022-10-21T18:11:18.240Z,100011.94
2022-10-21T18:13:46.722Z,100012.75
2022-10-21T18:16:17.301Z,100016.22
2022-10-21T18:18:46.447Z,100017.41
2022-10-21T18:21:17.832Z,100008.03
2022-10-21T18:23:47.885Z,100013.41
2022-10-21T18:26:19.272Z,100006.41
2022-10-21T18:28:50.349Z,100015.94
2022-10-21T18:31:20.193Z,100016.84
2022-10-21T18:33:47.991Z,100014.28
2022-10-21T18:36:18.769Z,100020.13
2022-10-21T18:38:46.588Z,100016.53
2022-10-21T18:41:20.215Z,100015.34
2022-10-21T18:43:50.045Z,100013.66
2022-10-21T18:46:18.573Z,100020.75
2022-10-21T18:48:46.263Z,100016.84
2022-10-21T18:51:16.531Z,100018.97
2022-10-21T18:53:48.527Z,100029.78
2022-10-21T18:56:19.714Z,100034.16
2022-10-21T18:58:47.482Z,100028.16
2022-10-21T19:01:15.954Z,100019.72
2022-10-21T19:03:43.761Z,100025.97
2022-10-21T19:06:19.805Z,100029.75
2022-10-21T19:08:49.011Z,100029.66
2022-10-21T19:11:16.771Z,100039.16
2022-10-21T19:13:44.516Z,100045.97
2022-10-21T19:16:12.254Z,100058.41
2022-10-21T19:18:40.119Z,100061.78
2022-10-21T19:21:08.074Z,100055.41
2022-10-21T19:23:35.831Z,100059.84
2022-10-21T19:26:06.280Z,100052.69
2022-10-21T19:28:34.908Z,100064.50
2022-10-21T19:31:02.922Z,100067.78
2022-10-21T19:33:31.162Z,100065.03
2022-10-21T19:36:00.802Z,100070.84
2022-10-21T19:38:43.227Z,100076.09
2022-10-21T19:41:15.889Z,100071.03
2022-10-21T19:43:44.214Z,100073.56
2022-10-21T19:46:18.937Z,100076.88
2022-10-21T19:48:49.416Z,100073.31
2022-10-21T19:51:19.086Z,100085.34
2022-10-21T19:53:47.828Z,100089.94
2022-10-21T19:56:20.910Z,100081.06
2022-10-21T19:58:51.859Z,100083.91
2022-10-21T20:01:21.481Z,100092.72
2022-10-21T20:03:50.669Z,100096.63
2022-10-21T20:06:23.741Z,100107.25
2022-10-21T20:08:51.679Z,100114.03
2022-10-21T20:11:22.111Z,100121.06
2022-10-21T20:13:50.731Z,100126.03
2022-10-21T20:16:21.881Z,100119.00
2022-10-21T20:18:50.176Z,100122.88
2022-10-21T20:21:18.706Z,100115.69
2022-10-21T20:23:46.864Z,100121.81
2022-10-21T20:26:14.607Z,100121.97
2022-10-21T20:28:43.839Z,100126.38
2022-10-21T20:31:13.730Z,100119.25
2022-10-21T20:33:43.730Z,100129.69
2022-10-21T20:36:13.834Z,100119.63
2022-10-21T20:38:41.697Z,100130.94
2022-10-21T20:41:12.131Z,100134.53
2022-10-21T20:43:41.705Z,100133.34
2022-10-21T20:46:13.692Z,100136.00
2022-10-21T20:48:42.703Z,100141.91
2022-10-21T20:51:13.005Z,100136.84
2022-10-21T20:53:44.847Z,100150.63
2022-10-21T20:56:12.727Z,100152.41
2022-10-21T20:58:41.590Z,100155.38
2022-10-21T21:01:12.493Z,100163.06
2022-10-21T21:03:42.653Z,100159.31
2022-10-21T21:06:11.429Z,100169.50
2022-10-21T21:08:48.645Z,100178.41
2022-10-21T21:11:22.204Z,100184.22
2022-10-21T21:13:49.961Z,100191.13
2022-10-21T21:16:20.997Z,100197.31
2022-10-21T21:18:52.698Z,100192.25
2022-10-21T21:21:22.505Z,100204.25
2022-10-21T21:23:50.489Z,100207.13
2022-10-21T21:26:20.249Z,100208.56
2022-10-21T21:28:48.195Z,100218.50
2022-10-21T21:31:16.561Z,100221.63
2022-10-21T21:33:46.386Z,100228.56
2022-10-21T21:36:14.980Z,100236.25
2022-10-21T21:38:43.213Z,100234.34
2022-10-21T21:41:11.719Z,100226.00
2022-10-21T21:43:41.448Z,100230.84
2022-10-21T21:46:09.224Z,100225.47
2022-10-21T21:48:37.339Z,100224.28
2022-10-21T21:51:10.086Z,100229.34
2022-10-21T21:53:38.653Z,100238.13
2022-10-21T21:56:09.126Z,100238.53
2022-10-21T21:58:36.909Z,100239.66
2022-10-21T22:01:12.733Z,100242.75
2022-10-21T22:03:40.616Z,100232.56
2022-10-21T22:06:10.074Z,100241.09
2022-10-21T22:08:40.090Z,100250.91
2022-10-21T22:11:09.592Z,100251.63
2022-10-21T22:13:38.588Z,100251.63
2022-10-21T22:16:07.508Z,100263.84
2022-10-21T22:18:35.726Z,100263.66
2022-10-21T22:21:05.493Z,100263.63
2022-10-21T22:23:35.057Z,100265.69
2022-10-21T22:26:02.913Z,100261.19
2022-10-21T22:28:30.592Z,100256.97
2022-10-21T22:31:01.510Z,100259.84
2022-10-21T22:33:30.339Z,100264.31
2022-10-21T22:35:58.061Z,100265.31
2022-10-21T22:38:26.017Z,100261.97
2022-10-21T22:40:55.933Z,100272.50
2022-10-21T22:43:23.721Z,100263.94
2022-10-21T22:45:51.402Z,100271.63
2022-10-21T22:48:19.522Z,100276.56
2022-10-21T22:50:47.348Z,100272.00
2022-10-21T22:53:15.650Z,100271.81
2022-10-21T22:55:43.706Z,100282.88
2022-10-21T22:58:16.303Z,100286.81
2022-10-21T23:00:44.397Z,100293.47
2022-10-21T23:03:12.243Z,100299.59
2022-10-21T23:05:40.003Z,100293.69
2022-10-21T23:08:07.674Z,100303.00
2022-10-21T23:10:35.417Z,100300.88
2022-10-21T23:13:05.303Z,100310.25
2022-10-21T23:15:35.624Z,100305.53
2022-10-21T23:18:03.995Z,100310.25
2022-10-21T23:20:31.787Z,100304.69
2022-10-21T23:22:59.979Z,100299.06
2022-10-21T23:25:28.054Z,100303.59
2022-10-21T23:27:56.081Z,100308.56
2022-10-21T23:30:24.178Z,100313.84
2022-10-21T23:32:53.221Z,100305.53
2022-10-21T23:35:21.192Z,100323.13
2022-10-21T23:37:48.857Z,100317.00
2022-10-21T23:40:16.598Z,100314.16
2022-10-21T23:42:44.298Z,100319.94
2022-10-21T23:45:12.848Z,100317.06
2022-10-21T23:47:40.844Z,100326.59
2022-10-21T23:50:11.313Z,100326.59
2022-10-21T23:52:39.495Z,100321.16
2022-10-21T23:55:08.360Z,100331.97
2022-10-21T23:57:36.499Z,100322.75
